createdAt,value
2022-09-19T00:01:38.257Z,93512.31
2022-09-19T00:04:13.241Z,93508.72
2022-09-19T00:06:41.833Z,93486.44
2022-09-19T00:09:11.227Z,93505.56
2022-09-19T00:11:40.517Z,93511.19
2022-09-19T00:14:08.757Z,93513.50
2022-09-19T00:16:40.040Z,93515.31
2022-09-19T00:19:07.937Z,93510.16
2022-09-19T00:21:39.723Z,93510.16
2022-09-19T00:24:27.077Z,93510.69
2022-09-19T00:26:56.157Z,93512.25
2022-09-19T00:29:24.615Z,93508.53
2022-09-19T00:31:52.375Z,93509.16
2022-09-19T00:34:19.954Z,93493.22
2022-09-19T00:36:47.130Z,93505.25
2022-09-19T00:39:17.089Z,93506.00
2022-09-19T00:41:44.379Z,93470.81
2022-09-19T00:44:22.990Z,93499.16
2022-09-19T00:47:12.342Z,93505.06
2022-09-19T00:49:43.609Z,93496.13
2022-09-19T00:52:22.448Z,93503.03
2022-09-19T00:54:51.023Z,93498.56
2022-09-19T00:57:18.426Z,93496.13
2022-09-19T00:59:48.984Z,93423.00
2022-09-19T01:02:20.342Z,93490.66
2022-09-19T01:04:46.778Z,93498.16
2022-09-19T01:07:16.188Z,93501.16
2022-09-19T01:09:58.909Z,93506.63
2022-09-19T01:12:47.721Z,93507.97
2022-09-19T01:15:21.759Z,93502.31
2022-09-19T01:17:51.831Z,93497.25
2022-09-19T01:20:33.730Z,93498.88
2022-09-19T01:23:38.109Z,93498.16
2022-09-19T01:26:32.234Z,93503.19
2022-09-19T01:29:23.969Z,93507.34
2022-09-19T01:31:55.129Z,93509.69
2022-09-19T01:34:30.316Z,93508.00
2022-09-19T01:37:05.203Z,93510.22
2022-09-19T01:39:34.978Z,93525.56
2022-09-19T01:42:02.304Z,93495.19
2022-09-19T01:44:30.973Z,93516.47
2022-09-19T01:47:34.408Z,93519.16
2022-09-19T01:50:19.924Z,93517.31
2022-09-19T01:52:52.621Z,93518.91
2022-09-19T01:55:37.687Z,93510.25
2022-09-19T01:58:22.027Z,93520.25
2022-09-19T02:00:59.452Z,93522.44
2022-09-19T02:03:46.270Z,93499.34
2022-09-19T02:06:43.485Z,93515.97
2022-09-19T02:09:23.687Z,93525.72
2022-09-19T02:11:54.311Z,93518.00
2022-09-19T02:14:25.320Z,93522.81
2022-09-19T02:17:04.470Z,93514.16
2022-09-19T02:19:44.111Z,93497.75
2022-09-19T02:22:21.142Z,93494.53
2022-09-19T02:24:52.270Z,93520.00
2022-09-19T02:27:23.763Z,93525.31
2022-09-19T02:29:54.673Z,93528.97
2022-09-19T02:32:22.677Z,93530.91
2022-09-19T02:34:50.485Z,93511.06
2022-09-19T02:37:23.769Z,93533.59
2022-09-19T02:40:15.682Z,93534.94
2022-09-19T02:42:56.341Z,93530.25
2022-09-19T02:45:33.673Z,93535.75
2022-09-19T02:48:12.854Z,93539.09
2022-09-19T02:50:53.654Z,93544.44
2022-09-19T02:53:27.889Z,93538.25
2022-09-19T02:55:58.854Z,93538.53
2022-09-19T02:58:30.946Z,93534.03
2022-09-19T03:01:06.992Z,93524.38
2022-09-19T03:04:02.244Z,93523.81
2022-09-19T03:06:36.862Z,93535.75
2022-09-19T03:09:07.222Z,93534.50
2022-09-19T03:11:37.963Z,93511.09
2022-09-19T03:14:07.436Z,93515.25
2022-09-19T03:16:39.509Z,93536.09
2022-09-19T03:19:09.286Z,93528.81
2022-09-19T03:21:39.109Z,93529.56
2022-09-19T03:24:06.493Z,93514.91
2022-09-19T03:26:35.994Z,93536.31
2022-09-19T03:29:06.163Z,93528.94
2022-09-19T03:31:33.403Z,93517.34
2022-09-19T03:34:00.073Z,93528.31
2022-09-19T03:36:29.924Z,93542.50
2022-09-19T03:38:56.701Z,93537.13
2022-09-19T03:41:23.564Z,93538.94
2022-09-19T03:43:51.079Z,93541.69
2022-09-19T03:46:23.553Z,93542.75
2022-09-19T03:48:50.672Z,93537.75
2022-09-19T03:51:18.158Z,93536.44
2022-09-19T03:53:44.734Z,93530.31
2022-09-19T03:56:13.254Z,93546.94
2022-09-19T03:58:41.011Z,93545.41
2022-09-19T04:01:08.087Z,93549.19
2022-09-19T04:03:35.861Z,93534.47
2022-09-19T04:06:03.283Z,93541.25
2022-09-19T04:08:29.874Z,93531.81
2022-09-19T04:10:57.078Z,93554.38
2022-09-19T04:13:23.835Z,93520.97
2022-09-19T04:15:51.581Z,93548.50
2022-09-19T04:18:19.409Z,93563.97
2022-09-19T04:20:48.073Z,93564.19
2022-09-19T04:23:17.858Z,93558.78
2022-09-19T04:25:45.642Z,93570.03
2022-09-19T04:28:12.949Z,93555.81
2022-09-19T04:30:43.708Z,93569.75
2022-09-19T04:33:12.802Z,93574.97
2022-09-19T04:35:40.246Z,93549.91
2022-09-19T04:38:09.538Z,93559.09
2022-09-19T04:40:47.874Z,93555.84
2022-09-19T04:43:17.402Z,93551.94
2022-09-19T04:45:49.295Z,93539.09
2022-09-19T04:48:17.476Z,93565.59
2022-09-19T04:50:45.815Z,93568.06
2022-09-19T04:53:14.438Z,93564.97
2022-09-19T04:55:41.685Z,93552.97
2022-09-19T04:58:08.455Z,93540.44
2022-09-19T05:00:41.074Z,93561.50
2022-09-19T05:03:09.273Z,93567.69
2022-09-19T05:05:37.614Z,93566.03
2022-09-19T05:08:05.346Z,93565.88
2022-09-19T05:10:33.522Z,93554.56
2022-09-19T05:13:00.998Z,93576.22
2022-09-19T05:15:27.765Z,93558.25
2022-09-19T05:17:55.437Z,93559.06
2022-09-19T05:20:27.105Z,93555.09
2022-09-19T05:22:59.847Z,93587.44
2022-09-19T05:25:31.271Z,93588.34
2022-09-19T05:27:58.248Z,93578.16
2022-09-19T05:30:27.126Z,93587.75
2022-09-19T05:32:53.666Z,93569.91
2022-09-19T05:35:22.191Z,93583.53
2022-09-19T05:37:48.826Z,93587.44
2022-09-19T05:40:15.943Z,93581.91
2022-09-19T05:42:44.637Z,93560.75
2022-09-19T05:45:12.215Z,93562.38
2022-09-19T05:47:41.055Z,93587.91
2022-09-19T05:50:09.540Z,93590.16
2022-09-19T05:52:56.881Z,93573.75
2022-09-19T05:55:23.885Z,93593.34
2022-09-19T05:57:52.669Z,93594.69
2022-09-19T06:00:24.788Z,93606.19
2022-09-19T06:03:01.485Z,93606.69
2022-09-19T06:05:33.299Z,93611.69
2022-09-19T06:08:00.583Z,93596.72
2022-09-19T06:10:28.478Z,93612.69
2022-09-19T06:12:55.053Z,93594.38
2022-09-19T06:15:21.721Z,93591.44
2022-09-19T06:17:54.870Z,93602.72
2022-09-19T06:20:21.737Z,93599.91
2022-09-19T06:22:48.833Z,93582.78
2022-09-19T06:25:15.746Z,93542.41
2022-09-19T06:27:46.558Z,93604.13
2022-09-19T06:30:13.698Z,93582.69
2022-09-19T06:32:40.311Z,93599.59
2022-09-19T06:35:07.470Z,93586.50
2022-09-19T06:37:34.001Z,93606.25
2022-09-19T06:40:00.996Z,93603.00
2022-09-19T06:42:29.313Z,93599.66
2022-09-19T06:44:56.058Z,93605.09
2022-09-19T06:47:22.797Z,93612.41
2022-09-19T06:49:49.839Z,93566.72
2022-09-19T06:52:16.658Z,93593.47
2022-09-19T06:54:43.271Z,93592.25
2022-09-19T06:57:11.705Z,93608.66
2022-09-19T06:59:39.646Z,93594.56
2022-09-19T07:02:06.309Z,93600.13
2022-09-19T07:04:35.162Z,93610.59
2022-09-19T07:07:02.204Z,93602.22
2022-09-19T07:09:28.872Z,93599.56
2022-09-19T07:11:57.523Z,93605.75
2022-09-19T07:14:25.193Z,93606.22
2022-09-19T07:16:51.818Z,93599.47
2022-09-19T07:19:18.389Z,93589.97
2022-09-19T07:21:48.894Z,93577.56
2022-09-19T07:24:15.845Z,93558.75
2022-09-19T07:26:46.468Z,93592.97
2022-09-19T07:29:13.581Z,93595.34
2022-09-19T07:31:40.177Z,93570.78
2022-09-19T07:34:06.841Z,93605.78
2022-09-19T07:36:35.791Z,93603.25
2022-09-19T07:39:02.873Z,93577.53
2022-09-19T07:41:29.473Z,93600.91
2022-09-19T07:43:56.017Z,93600.28
2022-09-19T07:46:24.506Z,93569.41
2022-09-19T07:48:51.217Z,93605.44
2022-09-19T07:51:17.791Z,93594.47
2022-09-19T07:53:44.726Z,93610.53
2022-09-19T07:56:11.465Z,93600.56
2022-09-19T07:58:38.374Z,93609.81
2022-09-19T08:01:05.864Z,93586.34
2022-09-19T08:03:32.702Z,93591.81
2022-09-19T08:06:00.902Z,93589.44
2022-09-19T08:08:27.672Z,93607.44
2022-09-19T08:10:59.346Z,93608.69
2022-09-19T08:13:26.011Z,93614.81
2022-09-19T08:15:52.590Z,93591.63
2022-09-19T08:18:22.229Z,93610.84
2022-09-19T08:20:49.699Z,93585.88
2022-09-19T08:23:18.710Z,93585.97
2022-09-19T08:25:52.195Z,93615.03
2022-09-19T08:28:22.650Z,93610.75
2022-09-19T08:30:49.931Z,93605.44
2022-09-19T08:33:17.303Z,93609.97
2022-09-19T08:35:44.430Z,93570.94
2022-09-19T08:38:13.238Z,93608.56
2022-09-19T08:40:46.844Z,93600.81
2022-09-19T08:43:52.751Z,93606.75
2022-09-19T08:46:37.076Z,93609.22
2022-09-19T08:49:03.693Z,93601.84
2022-09-19T08:51:53.601Z,93599.00
2022-09-19T08:54:41.257Z,93606.56
2022-09-19T08:57:18.279Z,93598.59
2022-09-19T08:59:47.151Z,93573.47
2022-09-19T09:02:47.398Z,93595.13
2022-09-19T09:06:00.310Z,93582.25
2022-09-19T09:08:48.110Z,93596.75
2022-09-19T09:11:28.719Z,93593.47
2022-09-19T09:14:17.118Z,93597.16
2022-09-19T09:17:15.707Z,93597.75
2022-09-19T09:19:56.677Z,93597.56
2022-09-19T09:22:32.081Z,93569.97
2022-09-19T09:25:30.324Z,93601.03
2022-09-19T09:28:10.881Z,93591.41
2022-09-19T09:30:42.745Z,93566.28
2022-09-19T09:33:22.262Z,93575.25
2022-09-19T09:35:55.696Z,93575.06
2022-09-19T09:38:30.014Z,93590.19
2022-09-19T09:41:46.260Z,93579.75
2022-09-19T09:44:14.200Z,93593.88
2022-09-19T09:47:05.387Z,93586.53
2022-09-19T09:49:32.015Z,93562.19
2022-09-19T09:52:39.951Z,93579.88
2022-09-19T09:55:46.826Z,93575.63
2022-09-19T09:58:25.403Z,93575.78
2022-09-19T10:01:37.022Z,93571.91
2022-09-19T10:04:21.131Z,93572.19
2022-09-19T10:06:54.144Z,93542.09
2022-09-19T10:09:26.814Z,93577.13
2022-09-19T10:14:48.040Z,93547.69
2022-09-19T10:17:20.510Z,93558.19
2022-09-19T10:19:50.622Z,93544.81
2022-09-19T10:22:18.662Z,93568.00
2022-09-19T10:24:54.060Z,93559.28
2022-09-19T10:27:25.139Z,93560.78
2022-09-19T10:30:12.377Z,93565.38
2022-09-19T10:32:39.005Z,93558.09
2022-09-19T10:35:32.072Z,93558.63
2022-09-19T10:38:15.174Z,93568.66
2022-09-19T10:40:53.897Z,93561.28
2022-09-19T10:43:27.170Z,93550.03
2022-09-19T10:45:54.498Z,93561.09
2022-09-19T10:48:31.666Z,93554.09
2022-09-19T10:51:00.035Z,93558.19
2022-09-19T10:53:29.847Z,93554.97
2022-09-19T10:56:02.021Z,93552.53
2022-09-19T10:58:28.745Z,93571.97
2022-09-19T11:01:03.654Z,93558.22
2022-09-19T11:03:36.460Z,93562.53
2022-09-19T11:06:14.076Z,93563.81
2022-09-19T11:08:49.693Z,93569.84
2022-09-19T11:11:46.822Z,93567.53
2022-09-19T11:14:19.232Z,93568.69
2022-09-19T11:17:13.553Z,93562.16
2022-09-19T11:19:52.597Z,93567.13
2022-09-19T11:22:31.260Z,93559.91
2022-09-19T11:25:13.229Z,93567.47
2022-09-19T11:28:03.631Z,93551.56
2022-09-19T11:30:37.751Z,93552.19
2022-09-19T11:36:20.851Z,93548.19
2022-09-19T11:42:05.185Z,93561.34
2022-09-19T11:44:31.777Z,93565.72
2022-09-19T11:47:17.218Z,93542.50
2022-09-19T11:50:03.226Z,93560.94
2022-09-19T11:52:48.503Z,93562.28
2022-09-19T11:55:18.046Z,93559.44
2022-09-19T11:57:44.644Z,93562.78
2022-09-19T12:00:26.198Z,93561.69
2022-09-19T12:03:11.807Z,93563.34
2022-09-19T12:06:06.254Z,93562.09
2022-09-19T12:08:40.594Z,93553.75
2022-09-19T12:11:13.883Z,93554.44
2022-09-19T12:13:57.364Z,93554.81
2022-09-19T12:16:38.001Z,93556.59
2022-09-19T12:19:17.392Z,93546.19
2022-09-19T12:21:50.499Z,93545.31
2022-09-19T12:24:55.045Z,93547.28
2022-09-19T12:27:38.406Z,93540.56
2022-09-19T12:30:14.476Z,93540.00
2022-09-19T12:32:53.446Z,93539.97
2022-09-19T12:35:36.400Z,93533.00
2022-09-19T12:38:28.848Z,93520.19
2022-09-19T12:41:10.483Z,93527.63
2022-09-19T12:43:53.254Z,93513.22
2022-09-19T12:46:41.660Z,93531.38
2022-09-19T12:49:51.766Z,93524.56
2022-09-19T12:52:37.288Z,93491.25
2022-09-19T12:55:16.968Z,93515.44
2022-09-19T12:57:53.055Z,93516.75
2022-09-19T13:00:21.872Z,93509.97
2022-09-19T13:03:17.018Z,93515.38
2022-09-19T13:05:48.029Z,93515.69
2022-09-19T13:08:30.379Z,93520.69
2022-09-19T13:11:14.182Z,93512.44
2022-09-19T13:13:57.836Z,93526.69
2022-09-19T13:16:57.359Z,93529.16
2022-09-19T13:19:57.534Z,93511.66
2022-09-19T13:22:44.569Z,93517.97
2022-09-19T13:25:18.243Z,93516.53
2022-09-19T13:27:49.423Z,93519.13
2022-09-19T13:30:34.886Z,93521.63
2022-09-19T13:33:02.079Z,93513.16
2022-09-19T13:35:28.747Z,93516.09
2022-09-19T13:38:02.279Z,93513.03
2022-09-19T13:40:40.441Z,93513.03
2022-09-19T13:43:23.838Z,93516.38
2022-09-19T13:46:05.489Z,93521.72
2022-09-19T13:48:47.995Z,93514.03
2022-09-19T13:51:36.538Z,93524.91
2022-09-19T13:54:17.709Z,93522.78
2022-09-19T13:56:47.293Z,93461.94
2022-09-19T13:59:24.400Z,93448.13
2022-09-19T14:02:14.580Z,93522.84
2022-09-19T14:05:03.439Z,93511.06
2022-09-19T14:10:44.451Z,93516.66
2022-09-19T14:13:27.981Z,93508.03
2022-09-19T14:16:00.685Z,93518.19
2022-09-19T14:18:50.924Z,93511.34
2022-09-19T14:21:26.866Z,93527.94
2022-09-19T14:24:00.314Z,93507.16
2022-09-19T14:27:04.309Z,93529.63
2022-09-19T14:29:44.463Z,93518.94
2022-09-19T14:32:22.041Z,93536.25
2022-09-19T14:34:50.649Z,93527.41
2022-09-19T14:37:57.177Z,93495.31
2022-09-19T14:40:25.601Z,93514.09
2022-09-19T14:43:45.774Z,93511.41
2022-09-19T14:47:00.293Z,93524.91
2022-09-19T14:49:32.586Z,93524.78
2022-09-19T14:52:12.612Z,93519.00
2022-09-19T14:55:00.818Z,93507.34
2022-09-19T14:57:27.615Z,93509.88
2022-09-19T14:59:54.437Z,93510.25
2022-09-19T15:02:29.908Z,93506.34
2022-09-19T15:05:14.406Z,93526.53
2022-09-19T15:07:41.240Z,93500.44
2022-09-19T15:10:29.258Z,93522.03
2022-09-19T15:12:56.739Z,93508.69
2022-09-19T15:15:28.837Z,93518.44
2022-09-19T15:17:55.419Z,93514.72
2022-09-19T15:20:22.151Z,93524.28
2022-09-19T15:22:55.574Z,93513.41
2022-09-19T15:25:31.211Z,93510.44
2022-09-19T15:28:03.966Z,93512.75
2022-09-19T15:30:35.244Z,93506.47
2022-09-19T15:33:01.762Z,93518.34
2022-09-19T15:35:29.915Z,93514.56
2022-09-19T15:38:03.126Z,93536.97
2022-09-19T15:40:33.776Z,93533.88
2022-09-19T15:43:01.850Z,93527.88
2022-09-19T15:45:28.530Z,93532.50
2022-09-19T15:48:01.326Z,93537.41
2022-09-19T15:50:32.770Z,93549.88
2022-09-19T15:52:59.807Z,93542.81
2022-09-19T15:55:31.192Z,93528.75
2022-09-19T15:57:59.822Z,93555.19
2022-09-19T16:00:28.987Z,93533.69
2022-09-19T16:02:59.803Z,93562.66
2022-09-19T16:05:34.379Z,93544.38
2022-09-19T16:08:22.941Z,93505.59
2022-09-19T16:10:54.954Z,93557.34
2022-09-19T16:13:37.942Z,93533.06
2022-09-19T16:16:27.631Z,93567.59
2022-09-19T16:18:55.485Z,93557.00
2022-09-19T16:21:44.334Z,93558.72
2022-09-19T16:24:16.784Z,93548.72
2022-09-19T16:26:45.114Z,93548.84
2022-09-19T16:29:12.240Z,93566.25
2022-09-19T16:31:40.756Z,93570.47
2022-09-19T16:34:08.792Z,93569.88
2022-09-19T16:36:47.108Z,93564.69
2022-09-19T16:39:44.542Z,93555.50
2022-09-19T16:42:11.035Z,93571.53
2022-09-19T16:44:51.835Z,93575.75
2022-09-19T16:47:26.078Z,93560.31
2022-09-19T16:49:54.203Z,93581.97
2022-09-19T16:52:30.915Z,93591.38
2022-09-19T16:55:00.497Z,93589.34
2022-09-19T16:57:27.770Z,93592.63
2022-09-19T16:59:55.804Z,93601.00
2022-09-19T17:02:31.331Z,93603.66
2022-09-19T17:05:07.987Z,93599.94
2022-09-19T17:07:34.958Z,93599.72
2022-09-19T17:10:01.576Z,93585.66
2022-09-19T17:12:28.165Z,93602.81
2022-09-19T17:14:54.731Z,93601.56
2022-09-19T17:17:21.314Z,93588.56
2022-09-19T17:19:47.980Z,93613.72
2022-09-19T17:22:20.032Z,93600.00
2022-09-19T17:24:47.162Z,93616.38
2022-09-19T17:27:14.994Z,93592.66
2022-09-19T17:29:42.354Z,93617.78
2022-09-19T17:32:12.669Z,93622.88
2022-09-19T17:34:39.291Z,93626.59
2022-09-19T17:37:05.972Z,93632.69
2022-09-19T17:39:32.715Z,93624.34
2022-09-19T17:42:00.143Z,93588.94
2022-09-19T17:44:26.825Z,93610.91
2022-09-19T17:46:53.424Z,93617.03
2022-09-19T17:49:20.006Z,93620.28
2022-09-19T17:51:46.943Z,93636.56
2022-09-19T17:54:15.296Z,93641.81
2022-09-19T17:56:42.039Z,93623.31
2022-09-19T17:59:09.257Z,93645.13
2022-09-19T18:01:54.292Z,93654.03
2022-09-19T18:04:20.941Z,93654.22
2022-09-19T18:06:48.236Z,93656.22
2022-09-19T18:09:15.362Z,93654.19
2022-09-19T18:11:42.401Z,93667.41
2022-09-19T18:14:15.023Z,93639.88
2022-09-19T18:16:44.090Z,93607.88
2022-09-19T18:19:10.951Z,93656.63
2022-09-19T18:21:40.144Z,93655.25
2022-09-19T18:24:08.649Z,93675.91
2022-09-19T18:26:35.349Z,93669.03
2022-09-19T18:29:03.405Z,93652.59
2022-09-19T18:31:30.454Z,93655.81
2022-09-19T18:33:57.177Z,93691.47
2022-09-19T18:36:25.467Z,93688.66
2022-09-19T18:38:53.943Z,93695.09
2022-09-19T18:41:21.914Z,93696.59
2022-09-19T18:43:48.745Z,93705.88
2022-09-19T18:46:20.712Z,93702.25
2022-09-19T18:48:48.913Z,93681.84
2022-09-19T18:51:26.055Z,93707.91
2022-09-19T18:53:55.355Z,93712.00
2022-09-19T18:56:22.536Z,93708.94
2022-09-19T18:58:51.551Z,93710.66
2022-09-19T19:01:19.537Z,93715.22
2022-09-19T19:03:55.743Z,93712.28
2022-09-19T19:06:23.164Z,93711.38
2022-09-19T19:08:52.266Z,93713.31
2022-09-19T19:11:24.538Z,93700.66
2022-09-19T19:13:52.981Z,93701.91
2022-09-19T19:16:21.517Z,93715.00
2022-09-19T19:18:53.301Z,93694.41
2022-09-19T19:21:27.544Z,93722.38
2022-09-19T19:23:55.942Z,93711.22
2022-09-19T19:26:24.157Z,93719.63
2022-09-19T19:28:51.330Z,93726.63
2022-09-19T19:31:18.920Z,93728.16
2022-09-19T19:33:45.672Z,93723.84
2022-09-19T19:36:14.693Z,93735.31
2022-09-19T19:38:43.513Z,93740.31
2022-09-19T19:41:14.632Z,93745.47
2022-09-19T19:43:41.273Z,93740.94
2022-09-19T19:46:12.825Z,93731.38
2022-09-19T19:48:40.540Z,93743.31
2022-09-19T19:51:15.155Z,93740.94
2022-09-19T19:53:43.471Z,93715.59
2022-09-19T19:56:15.927Z,93720.38
2022-09-19T19:58:44.016Z,93732.56
2022-09-19T20:01:18.319Z,93731.41
2022-09-19T20:03:48.078Z,93738.69
2022-09-19T20:06:26.787Z,93742.13
2022-09-19T20:08:56.129Z,93749.13
2022-09-19T20:11:26.227Z,93747.00
2022-09-19T20:13:54.537Z,93752.47
2022-09-19T20:16:22.453Z,93735.06
2022-09-19T20:18:52.178Z,93742.44
2022-09-19T20:21:22.623Z,93744.53
2022-09-19T20:23:49.949Z,93718.25
2022-09-19T20:26:22.853Z,93744.44
2022-09-19T20:28:54.924Z,93721.44
2022-09-19T20:31:26.049Z,93745.13
2022-09-19T20:33:53.294Z,93737.41
2022-09-19T20:36:20.652Z,93745.09
2022-09-19T20:38:48.830Z,93737.41
2022-09-19T20:41:15.342Z,93729.94
2022-09-19T20:43:41.905Z,93734.22
2022-09-19T20:46:14.552Z,93742.16
2022-09-19T20:48:41.857Z,93741.78
2022-09-19T20:51:14.186Z,93748.97
2022-09-19T20:53:41.130Z,93742.44
2022-09-19T20:56:13.846Z,93746.25
2022-09-19T20:58:40.678Z,93727.38
2022-09-19T21:01:15.144Z,93747.63
2022-09-19T21:03:42.784Z,93736.59
2022-09-19T21:06:11.713Z,93746.72
2022-09-19T21:08:42.441Z,93746.88
2022-09-19T21:11:13.172Z,93730.41
2022-09-19T21:13:47.278Z,93711.50
2022-09-19T21:16:16.540Z,93739.03
2022-09-19T21:18:51.689Z,93736.03
2022-09-19T21:21:20.762Z,93734.38
2022-09-19T21:23:49.732Z,93718.25
2022-09-19T21:26:19.643Z,93722.72
2022-09-19T21:28:49.110Z,93742.97
2022-09-19T21:31:18.944Z,93745.88
2022-09-19T21:33:46.326Z,93734.72
2022-09-19T21:36:13.240Z,93749.91
2022-09-19T21:38:40.443Z,93743.72
2022-09-19T21:41:12.676Z,93740.50
2022-09-19T21:43:44.293Z,93743.72
2022-09-19T21:46:16.454Z,93727.56
2022-09-19T21:48:45.914Z,93733.28
2022-09-19T21:51:19.718Z,93735.69
2022-09-19T21:53:51.387Z,93739.31
2022-09-19T21:56:18.922Z,93742.78
2022-09-19T21:58:45.911Z,93729.22
2022-09-19T22:01:16.316Z,93700.25
2022-09-19T22:03:44.078Z,93729.75
2022-09-19T22:06:11.861Z,93709.72
2022-09-19T22:08:39.098Z,93740.06
2022-09-19T22:11:11.105Z,93736.69
2022-09-19T22:13:40.470Z,93732.03
2022-09-19T22:16:09.244Z,93734.59
2022-09-19T22:18:36.726Z,93728.94
2022-09-19T22:21:05.354Z,93736.06
2022-09-19T22:23:34.577Z,93747.50
2022-09-19T22:26:15.271Z,93745.88
2022-09-19T22:28:42.705Z,93751.97
2022-09-19T22:31:11.833Z,93750.88
2022-09-19T22:33:40.095Z,93727.16
2022-09-19T22:36:09.387Z,93753.34
2022-09-19T22:38:36.073Z,93741.28
2022-09-19T22:41:06.551Z,93763.13
2022-09-19T22:43:33.358Z,93747.78
2022-09-19T22:46:00.138Z,93753.63
2022-09-19T22:48:27.262Z,93764.34
2022-09-19T22:50:55.178Z,93729.22
2022-09-19T22:53:21.896Z,93731.22
2022-09-19T22:55:57.099Z,93755.34
2022-09-19T22:58:30.643Z,93754.13
2022-09-19T23:01:14.165Z,93745.00
2022-09-19T23:03:41.584Z,93752.25
2022-09-19T23:06:18.335Z,93750.59
2022-09-19T23:09:14.531Z,93735.81
2022-09-19T23:11:42.179Z,93728.53
2022-09-19T23:14:13.799Z,93753.03
2022-09-19T23:16:41.895Z,93730.38
2022-09-19T23:19:14.945Z,93739.84
2022-09-19T23:21:44.286Z,93740.63
2022-09-19T23:24:16.298Z,93722.31
2022-09-19T23:26:43.296Z,93738.56
2022-09-19T23:29:10.710Z,93711.25
2022-09-19T23:31:38.095Z,93734.94
2022-09-19T23:34:05.219Z,93736.03
2022-09-19T23:36:32.734Z,93740.28
2022-09-19T23:39:00.791Z,93722.03
2022-09-19T23:41:28.449Z,93721.41
2022-09-19T23:43:56.397Z,93733.78
2022-09-19T23:46:23.585Z,93739.38
2022-09-19T23:48:50.719Z,93730.03
2022-09-19T23:51:19.126Z,93744.31
2022-09-19T23:53:45.996Z,93742.19
2022-09-19T23:56:12.574Z,93744.63
2022-09-19T23:58:39.205Z,93747.94
